Time;durP1;ratioP1;P1;durP2;ratioP2;P2;SDS_P1;SDS_P2;PMS_P1;PMS_P2;Temp;Humidity;BMP_temperature;BMP_pressure;BME280_temperature;BME280_humidity;BME280_pressure;Samples;Min_cycle;Max_cycle;Signal;HPM_P1;HPM_P2
2023/04/20 00:00:11;;;;;;;10.43;4.30;;;3.50;99.90;;;;;;5068796;28;20190;-72
2023/04/20 00:02:38;;;;;;;7.70;4.23;;;3.50;99.90;;;;;;5068821;28;20721;-72
2023/04/20 00:05:07;;;;;;;5.70;3.80;;;3.50;99.90;;;;;;5068925;28;20422;-72
2023/04/20 00:07:34;;;;;;;6.30;4.47;;;3.40;99.90;;;;;;5068759;28;20411;-72
2023/04/20 00:10:00;;;;;;;10.75;6.30;;;3.50;99.90;;;;;;5070966;28;20211;-72
2023/04/20 00:12:26;;;;;;;8.15;5.47;;;3.30;99.90;;;;;;5072697;28;20174;-72
2023/04/20 00:14:52;;;;;;;6.20;5.03;;;3.20;99.90;;;;;;5072215;28;20256;-72
2023/04/20 00:17:18;;;;;;;9.35;6.95;;;3.10;99.90;;;;;;5072217;28;20219;-72
2023/04/20 00:19:45;;;;;;;6.43;5.07;;;3.00;99.90;;;;;;5072176;28;20680;-73
2023/04/20 00:22:10;;;;;;;6.70;5.25;;;3.00;99.90;;;;;;5072021;28;20298;-72
2023/04/20 00:24:36;;;;;;;8.67;5.07;;;2.90;99.90;;;;;;5071996;28;20293;-72
2023/04/20 00:27:02;;;;;;;7.03;5.67;;;2.90;99.90;;;;;;5070865;28;20894;-72
2023/04/20 00:29:27;;;;;;;6.60;5.13;;;2.80;99.90;;;;;;5070465;28;20187;-72
2023/04/20 00:31:53;;;;;;;8.63;5.33;;;2.70;99.90;;;;;;5071870;28;20212;-72
2023/04/20 00:34:19;;;;;;;7.77;5.20;;;2.70;99.90;;;;;;5071829;28;20307;-72
2023/04/20 00:36:44;;;;;;;12.93;4.65;;;2.60;99.90;;;;;;5071872;28;20187;-72
2023/04/20 00:39:10;;;;;;;9.43;4.43;;;2.60;99.90;;;;;;5071766;28;20185;-72
2023/04/20 00:41:36;;;;;;;5.87;5.27;;;2.70;99.90;;;;;;5071793;28;20219;-72
2023/04/20 00:44:01;;;;;;;24.70;12.07;;;2.70;99.90;;;;;;5071457;28;20200;-72
2023/04/20 00:46:27;;;;;;;18.20;9.30;;;2.70;99.90;;;;;;5071405;28;20720;-73
2023/04/20 00:48:53;;;;;;;6.30;5.70;;;2.70;99.90;;;;;;5069901;28;20187;-73
2023/04/20 00:51:22;;;;;;;10.70;6.88;;;2.60;99.90;;;;;;5071189;28;20208;-72
2023/04/20 00:53:47;;;;;;;11.45;6.00;;;2.40;99.90;;;;;;5071321;28;20640;-73
2023/04/20 00:56:15;;;;;;;10.00;5.63;;;2.20;99.90;;;;;;5069884;28;20197;-72
2023/04/20 00:58:42;;;;;;;9.13;5.40;;;2.10;99.90;;;;;;5071344;28;20173;-72
2023/04/20 01:01:09;;;;;;;9.18;5.55;;;2.30;99.90;;;;;;5071240;28;20808;-72
2023/04/20 01:03:35;;;;;;;7.40;5.18;;;2.40;99.90;;;;;;5071439;28;20198;-72
2023/04/20 01:06:01;;;;;;;5.90;5.00;;;2.40;99.90;;;;;;5073745;28;20183;-72
2023/04/20 01:08:27;;;;;;;11.23;6.05;;;2.30;99.90;;;;;;5072602;28;20302;-72
2023/04/20 01:10:53;;;;;;;11.13;6.33;;;2.30;99.90;;;;;;5071650;28;20332;-73
2023/04/20 01:13:19;;;;;;;11.32;7.00;;;2.30;99.90;;;;;;5071062;28;20465;-73
2023/04/20 01:15:45;;;;;;;9.47;6.13;;;2.40;99.90;;;;;;5070947;28;20270;-72
2023/04/20 01:18:10;;;;;;;8.40;5.90;;;2.30;99.90;;;;;;5071285;28;20248;-72
2023/04/20 01:20:36;;;;;;;9.27;6.07;;;2.20;99.90;;;;;;5070738;28;20192;-73
2023/04/20 01:23:02;;;;;;;10.00;6.67;;;1.90;99.90;;;;;;5070903;28;20215;-72
2023/04/20 01:25:28;;;;;;;11.50;7.40;;;1.80;99.90;;;;;;5071010;28;20423;-72
2023/04/20 01:27:54;;;;;;;11.88;7.18;;;1.70;99.90;;;;;;5071293;28;20895;-72
2023/04/20 01:30:20;;;;;;;8.90;7.37;;;1.80;99.90;;;;;;5071250;28;20218;-72
2023/04/20 01:32:45;;;;;;;11.17;7.97;;;1.90;99.90;;;;;;5070858;28;20241;-72
2023/04/20 01:35:11;;;;;;;9.93;7.63;;;2.00;99.90;;;;;;5070667;28;20173;-72
2023/04/20 01:37:41;;;;;;;11.43;8.13;;;2.10;99.90;;;;;;5070606;28;20179;-72
2023/04/20 01:40:11;;;;;;;17.17;8.13;;;2.10;99.90;;;;;;5070346;28;20240;-73
2023/04/20 01:42:38;;;;;;;16.13;8.48;;;2.20;99.90;;;;;;5068994;28;20195;-72
2023/04/20 01:45:05;;;;;;;12.93;8.05;;;2.30;99.90;;;;;;5070399;28;20189;-72
2023/04/20 01:47:31;;;;;;;11.00;7.43;;;2.40;99.90;;;;;;5070686;28;20231;-72
2023/04/20 01:49:56;;;;;;;9.87;7.40;;;2.40;99.90;;;;;;5070163;28;20211;-72
2023/04/20 01:52:22;;;;;;;11.73;6.70;;;2.40;99.90;;;;;;5068899;28;20696;-72
2023/04/20 01:54:47;;;;;;;14.27;7.03;;;2.40;99.90;;;;;;5070097;28;20196;-72
2023/04/20 01:57:13;;;;;;;9.87;6.63;;;2.40;99.90;;;;;;5070257;28;20185;-72
2023/04/20 01:59:39;;;;;;;9.60;7.67;;;2.40;99.90;;;;;;5070078;28;20184;-72
2023/04/20 02:02:04;;;;;;;10.00;7.10;;;2.40;99.90;;;;;;5070094;28;20192;-72
2023/04/20 02:04:30;;;;;;;14.03;7.47;;;2.30;99.90;;;;;;5069960;28;20287;-73
2023/04/20 02:06:56;;;;;;;10.67;6.67;;;2.30;99.90;;;;;;5070117;28;20218;-73
2023/04/20 02:09:21;;;;;;;14.43;7.53;;;2.20;99.90;;;;;;5068793;28;20188;-73
2023/04/20 02:11:47;;;;;;;10.00;6.67;;;2.20;99.90;;;;;;5069958;28;20212;-73
2023/04/20 02:14:12;;;;;;;10.30;6.97;;;2.20;99.90;;;;;;5069775;28;20283;-73
2023/04/20 02:16:40;;;;;;;10.60;7.10;;;2.20;99.90;;;;;;5069969;28;20180;-72
2023/04/20 02:19:05;;;;;;;9.73;6.15;;;2.20;99.90;;;;;;5085259;28;20195;-72
2023/04/20 02:21:31;;;;;;;11.47;6.63;;;2.30;99.90;;;;;;5070022;28;20279;-72
2023/04/20 02:23:57;;;;;;;9.10;7.10;;;2.10;99.90;;;;;;5069871;28;20211;-72
2023/04/20 02:26:22;;;;;;;9.07;6.00;;;2.10;99.90;;;;;;5069942;28;20193;-72
2023/04/20 02:28:48;;;;;;;13.97;7.57;;;2.00;99.90;;;;;;5070097;28;20207;-72
2023/04/20 02:31:13;;;;;;;13.37;7.13;;;2.00;99.90;;;;;;5069499;28;20215;-71
2023/04/20 02:33:39;;;;;;;9.07;6.47;;;2.00;99.90;;;;;;5070167;28;20751;-72
2023/04/20 02:36:05;;;;;;;11.13;6.70;;;2.00;99.90;;;;;;5070228;28;20191;-72
2023/04/20 02:38:31;;;;;;;9.70;7.20;;;1.90;99.90;;;;;;5070108;28;20428;-72
2023/04/20 02:40:56;;;;;;;9.53;6.80;;;2.00;99.90;;;;;;5069988;28;20958;-72
2023/04/20 02:43:22;;;;;;;9.83;7.30;;;2.00;99.90;;;;;;5068495;28;20576;-71
2023/04/20 02:45:48;;;;;;;9.20;6.83;;;2.00;99.90;;;;;;5069991;28;20242;-72
2023/04/20 02:48:13;;;;;;;16.07;7.90;;;2.10;99.90;;;;;;5069978;28;20189;-73
2023/04/20 02:50:41;;;;;;;9.40;7.23;;;2.10;99.90;;;;;;5069721;28;20208;-72
2023/04/20 02:53:06;;;;;;;9.23;6.18;;;2.00;99.90;;;;;;5069634;28;20200;-74
2023/04/20 02:55:32;;;;;;;10.77;7.20;;;2.00;99.90;;;;;;5069776;28;20667;-73
2023/04/20 02:57:58;;;;;;;11.03;7.83;;;2.00;99.90;;;;;;5069458;28;20172;-72
2023/04/20 03:00:23;;;;;;;9.73;6.40;;;1.90;99.90;;;;;;5069493;28;20184;-73
2023/04/20 03:02:50;;;;;;;8.97;6.70;;;1.90;99.90;;;;;;5069101;28;20184;-72
2023/04/20 03:05:16;;;;;;;7.68;6.30;;;1.90;99.90;;;;;;5069115;28;20676;-72
2023/04/20 03:07:42;;;;;;;11.17;6.57;;;1.90;99.90;;;;;;5069368;28;20211;-72
2023/04/20 03:10:08;;;;;;;8.83;6.20;;;1.90;99.90;;;;;;5069213;28;20202;-72
2023/04/20 03:12:34;;;;;;;8.98;6.50;;;1.80;99.90;;;;;;5069139;28;20224;-71
2023/04/20 03:15:00;;;;;;;11.00;7.50;;;1.80;99.90;;;;;;5069002;28;20208;-71
2023/04/20 03:17:26;;;;;;;14.53;8.13;;;1.90;99.90;;;;;;5069075;28;20549;-72
2023/04/20 03:19:51;;;;;;;11.03;7.10;;;1.90;99.90;;;;;;5069045;28;20417;-72
2023/04/20 03:22:20;;;;;;;10.90;7.70;;;1.90;99.90;;;;;;5069230;28;20722;-72
2023/04/20 03:24:46;;;;;;;9.68;7.38;;;2.00;99.90;;;;;;5067611;28;20210;-72
2023/04/20 03:27:12;;;;;;;10.57;7.50;;;2.10;99.90;;;;;;5069090;28;20188;-72
2023/04/20 03:29:37;;;;;;;10.17;7.20;;;2.10;99.90;;;;;;5069019;28;20241;-72
2023/04/20 03:32:03;;;;;;;11.23;8.00;;;2.10;99.90;;;;;;5069049;28;20587;-72
2023/04/20 03:34:29;;;;;;;8.60;7.10;;;2.10;99.90;;;;;;5069142;28;20207;-73
2023/04/20 03:36:55;;;;;;;8.60;7.10;;;2.10;99.90;;;;;;5069418;28;21259;-72
2023/04/20 03:39:20;;;;;;;10.17;7.43;;;2.10;99.90;;;;;;5069376;28;20196;-72
2023/04/20 03:41:46;;;;;;;9.57;7.20;;;2.00;99.90;;;;;;5069657;28;20267;-73
2023/04/20 03:44:12;;;;;;;12.00;7.57;;;2.10;99.90;;;;;;5073019;28;20693;-72
2023/04/20 03:46:38;;;;;;;12.05;8.15;;;2.00;99.90;;;;;;5074674;28;20199;-72
2023/04/20 03:49:04;;;;;;;11.00;7.40;;;1.90;99.90;;;;;;5074535;28;20180;-72
2023/04/20 03:51:30;;;;;;;16.63;11.50;;;1.80;99.90;;;;;;5073783;28;20227;-71
2023/04/20 03:53:55;;;;;;;14.50;8.53;;;1.80;99.90;;;;;;5073547;28;20191;-72
2023/04/20 03:56:21;;;;;;;8.97;7.20;;;1.80;99.90;;;;;;5073306;28;20421;-72
2023/04/20 03:58:46;;;;;;;10.93;7.60;;;1.80;99.90;;;;;;5073285;28;20258;-73
2023/04/20 04:01:12;;;;;;;9.23;6.93;;;1.70;99.90;;;;;;5073225;28;20640;-73
2023/04/20 04:03:38;;;;;;;13.63;7.50;;;1.70;99.90;;;;;;5072999;28;20206;-72
2023/04/20 04:06:04;;;;;;;11.13;6.30;;;1.70;99.90;;;;;;5073349;28;20198;-71
2023/04/20 04:08:31;;;;;;;11.53;7.00;;;1.70;99.90;;;;;;5073308;28;20214;-71
2023/04/20 04:10:56;;;;;;;11.25;6.32;;;1.70;99.90;;;;;;5072987;28;20977;-73
2023/04/20 04:13:22;;;;;;;13.33;8.40;;;1.60;99.90;;;;;;5072872;28;20214;-73
2023/04/20 04:15:48;;;;;;;14.07;8.47;;;1.50;99.90;;;;;;5073084;28;20179;-72
2023/04/20 04:18:14;;;;;;;14.95;7.47;;;1.60;99.90;;;;;;5072975;28;20287;-72
2023/04/20 04:20:39;;;;;;;13.80;7.23;;;1.60;99.90;;;;;;5072985;28;20296;-72
2023/04/20 04:23:05;;;;;;;9.60;8.27;;;1.50;99.90;;;;;;5072578;28;20197;-71
2023/04/20 04:25:31;;;;;;;12.60;8.23;;;1.50;99.90;;;;;;5072629;28;20183;-72
2023/04/20 04:27:57;;;;;;;19.10;8.30;;;1.40;99.90;;;;;;5072405;28;20419;-72
2023/04/20 04:30:23;;;;;;;9.95;7.57;;;1.40;99.90;;;;;;5071993;28;20604;-72
2023/04/20 04:32:49;;;;;;;12.47;7.93;;;1.30;99.90;;;;;;5053853;28;20194;-72
2023/04/20 04:35:15;;;;;;;13.50;8.10;;;1.30;99.90;;;;;;5071934;28;20200;-71
2023/04/20 04:37:41;;;;;;;11.47;8.37;;;1.30;99.90;;;;;;5072089;28;20500;-72
2023/04/20 04:40:07;;;;;;;10.20;7.83;;;1.30;99.90;;;;;;5071636;28;20454;-71
2023/04/20 04:42:34;;;;;;;12.52;8.95;;;1.30;99.90;;;;;;5071858;28;20429;-71
2023/04/20 04:45:03;;;;;;;11.60;8.60;;;1.40;99.90;;;;;;5071987;28;20212;-71
2023/04/20 04:47:34;;;;;;;13.32;9.02;;;1.40;99.90;;;;;;5071175;28;20186;-73
2023/04/20 04:50:02;;;;;;;27.75;11.40;;;1.50;99.90;;;;;;5071301;28;20715;-71
2023/04/20 04:52:27;;;;;;;13.90;10.25;;;1.60;99.90;;;;;;5070786;28;20220;-71
2023/04/20 04:54:53;;;;;;;14.33;9.73;;;1.60;99.90;;;;;;5070167;28;20704;-71
2023/04/20 04:57:19;;;;;;;14.23;9.67;;;1.70;99.90;;;;;;5071388;28;20629;-71
2023/04/20 04:59:44;;;;;;;14.90;9.97;;;1.70;99.90;;;;;;5072980;28;20203;-70
2023/04/20 05:02:10;;;;;;;14.90;9.57;;;1.90;99.90;;;;;;5074411;28;20534;-71
2023/04/20 05:04:35;;;;;;;12.83;8.77;;;1.90;99.90;;;;;;5070709;28;20579;-71
2023/04/20 05:07:01;;;;;;;19.27;10.90;;;2.00;99.90;;;;;;5072225;28;20207;-71
2023/04/20 05:09:32;;;;;;;14.13;10.70;;;2.00;99.90;;;;;;5071605;28;20194;-72
2023/04/20 05:11:59;;;;;;;13.60;9.82;;;2.10;99.90;;;;;;5071328;28;20215;-72
2023/04/20 05:14:25;;;;;;;17.30;10.27;;;2.20;99.90;;;;;;5071309;28;20203;-71
2023/04/20 05:16:51;;;;;;;11.80;8.95;;;2.20;99.90;;;;;;5072236;28;20172;-71
2023/04/20 05:19:17;;;;;;;14.03;7.97;;;2.20;99.90;;;;;;5071576;28;20977;-72
2023/04/20 05:21:43;;;;;;;14.37;8.60;;;2.20;99.90;;;;;;5071901;28;20427;-71
2023/04/20 05:24:08;;;;;;;14.93;9.00;;;2.30;99.90;;;;;;5071747;28;20196;-71
2023/04/20 05:26:34;;;;;;;15.17;9.37;;;2.10;99.90;;;;;;5071168;28;20181;-71
2023/04/20 05:29:00;;;;;;;15.10;9.07;;;2.20;99.90;;;;;;5070830;28;20607;-71
2023/04/20 05:31:26;;;;;;;19.58;8.45;;;2.30;99.90;;;;;;5070577;28;20230;-71
2023/04/20 05:33:52;;;;;;;12.87;8.27;;;2.40;99.90;;;;;;5070684;28;20211;-71
2023/04/20 05:36:17;;;;;;;14.27;9.60;;;2.50;99.90;;;;;;5070238;28;20892;-71
2023/04/20 05:38:43;;;;;;;13.67;8.67;;;2.50;99.90;;;;;;5070465;28;20600;-71
2023/04/20 05:41:09;;;;;;;13.73;8.90;;;2.50;99.90;;;;;;5068693;28;20728;-71
2023/04/20 05:43:34;;;;;;;13.87;10.00;;;2.50;99.90;;;;;;5069259;28;20210;-72
2023/04/20 05:46:00;;;;;;;12.57;9.60;;;2.60;99.90;;;;;;5068309;28;20203;-70
2023/04/20 05:48:28;;;;;;;17.13;10.07;;;2.60;99.90;;;;;;5070340;28;20192;-70
2023/04/20 05:50:54;;;;;;;14.55;8.85;;;2.60;99.90;;;;;;5070342;28;20303;-71
2023/04/20 05:53:20;;;;;;;12.40;8.00;;;2.70;99.90;;;;;;5069652;28;20309;-70
2023/04/20 05:55:46;;;;;;;12.25;7.55;;;2.70;99.90;;;;;;5067955;28;20645;-71
2023/04/20 05:58:11;;;;;;;11.10;7.67;;;2.70;99.90;;;;;;5069153;28;20195;-72
2023/04/20 06:00:37;;;;;;;10.70;7.50;;;2.90;99.90;;;;;;5069135;28;20227;-70
2023/04/20 06:03:03;;;;;;;16.80;8.10;;;3.00;99.90;;;;;;5068942;28;20737;-71
2023/04/20 06:05:29;;;;;;;11.47;7.70;;;3.10;99.90;;;;;;5068013;28;20267;-70
2023/04/20 06:07:54;;;;;;;18.70;8.00;;;3.10;99.90;;;;;;5068254;28;20425;-71
2023/04/20 06:10:20;;;;;;;13.10;8.97;;;3.20;99.90;;;;;;5068558;28;20249;-71
2023/04/20 06:12:46;;;;;;;13.33;8.60;;;3.40;99.90;;;;;;5068308;28;20219;-70
2023/04/20 06:15:12;;;;;;;12.80;8.95;;;3.40;99.90;;;;;;5068595;28;20183;-70
2023/04/20 06:17:39;;;;;;;18.27;13.07;;;3.60;99.90;;;;;;5068705;28;20874;-70
2023/04/20 06:20:09;;;;;;;15.70;13.07;;;3.60;99.90;;;;;;5068522;28;20889;-70
2023/04/20 06:22:35;;;;;;;15.80;12.18;;;3.60;99.90;;;;;;5068547;28;20217;-71
2023/04/20 06:25:01;;;;;;;14.95;11.13;;;3.70;99.90;;;;;;5068100;28;20287;-70
2023/04/20 06:27:27;;;;;;;17.40;11.93;;;3.80;99.90;;;;;;5068554;28;20204;-71
2023/04/20 06:29:53;;;;;;;20.60;13.00;;;3.90;99.90;;;;;;5068298;28;20510;-70
2023/04/20 06:32:19;;;;;;;22.20;11.68;;;3.90;99.90;;;;;;5068292;28;20177;-70
2023/04/20 06:34:46;;;;;;;13.43;10.40;;;4.00;99.90;;;;;;5068010;28;20205;-71
2023/04/20 06:37:12;;;;;;;15.45;9.65;;;4.00;99.90;;;;;;5068079;28;20178;-70
2023/04/20 06:39:38;;;;;;;15.93;10.50;;;4.00;99.90;;;;;;5068131;28;20211;-70
2023/04/20 06:42:03;;;;;;;15.37;10.90;;;4.00;99.90;;;;;;5068298;28;20421;-71
2023/04/20 06:44:29;;;;;;;15.13;10.10;;;4.00;99.90;;;;;;5067908;28;20212;-70
2023/04/20 06:46:55;;;;;;;19.70;10.73;;;4.00;99.90;;;;;;5067932;28;20255;-70
2023/04/20 06:49:20;;;;;;;15.00;11.47;;;4.00;99.90;;;;;;5067986;28;20217;-70
2023/04/20 06:51:46;;;;;;;13.67;10.43;;;4.00;99.90;;;;;;5067982;28;20208;-70
2023/04/20 06:54:11;;;;;;;16.30;10.30;;;4.00;99.90;;;;;;5067862;28;20206;-70
2023/04/20 06:56:37;;;;;;;14.93;10.80;;;3.90;99.90;;;;;;5068012;28;20199;-70
2023/04/20 06:59:03;;;;;;;14.40;10.90;;;3.90;99.90;;;;;;5067931;28;20215;-70
2023/04/20 07:01:28;;;;;;;15.20;10.53;;;3.90;99.90;;;;;;5068104;28;20715;-70
2023/04/20 07:03:54;;;;;;;16.97;11.03;;;4.10;99.90;;;;;;5067861;28;20209;-70
2023/04/20 07:06:19;;;;;;;16.20;11.00;;;4.00;99.90;;;;;;5068060;28;20272;-70
2023/04/20 07:08:45;;;;;;;15.60;10.87;;;4.10;99.90;;;;;;5067944;28;20255;-70
2023/04/20 07:11:10;;;;;;;15.43;11.10;;;4.20;99.90;;;;;;5067655;28;20213;-71
2023/04/20 07:13:36;;;;;;;15.00;11.67;;;4.00;99.90;;;;;;5067794;28;20208;-70
2023/04/20 07:16:02;;;;;;;17.00;11.77;;;4.00;99.90;;;;;;5067860;28;20719;-70
2023/04/20 07:18:27;;;;;;;16.47;11.37;;;4.10;99.90;;;;;;5067720;28;20211;-70
2023/04/20 07:20:53;;;;;;;13.10;10.23;;;4.00;99.90;;;;;;5068057;28;20209;-69
2023/04/20 07:23:19;;;;;;;13.83;10.73;;;4.00;99.90;;;;;;5067892;28;20207;-71
2023/04/20 07:25:45;;;;;;;15.33;11.17;;;4.10;99.90;;;;;;5066351;28;20327;-70
2023/04/20 07:28:10;;;;;;;17.60;11.80;;;4.10;99.90;;;;;;5067899;28;20188;-70
2023/04/20 07:30:36;;;;;;;14.70;11.00;;;4.10;99.90;;;;;;5067944;28;20237;-70
2023/04/20 07:33:02;;;;;;;19.77;9.80;;;4.20;99.90;;;;;;5067890;28;20207;-70
2023/04/20 07:35:27;;;;;;;17.88;10.57;;;4.20;99.90;;;;;;5068182;28;20601;-71
2023/04/20 07:37:53;;;;;;;14.93;10.03;;;4.10;99.90;;;;;;5067496;28;20190;-70
2023/04/20 07:40:19;;;;;;;15.87;11.47;;;4.20;99.90;;;;;;5065580;28;20308;-69
2023/04/20 07:42:44;;;;;;;18.23;10.93;;;4.20;99.90;;;;;;5067497;28;20181;-70
2023/04/20 07:45:11;;;;;;;14.70;9.93;;;4.20;99.90;;;;;;5067491;28;20189;-70
2023/04/20 07:47:38;;;;;;;16.13;10.40;;;4.30;99.90;;;;;;5068349;28;20199;-70
2023/04/20 07:50:06;;;;;;;14.45;9.98;;;4.30;99.90;;;;;;5067564;28;20200;-71
2023/04/20 07:52:32;;;;;;;11.60;9.55;;;4.40;99.90;;;;;;5082741;28;20561;-71
2023/04/20 07:54:58;;;;;;;12.07;8.90;;;4.40;99.90;;;;;;5067302;28;20209;-71
2023/04/20 07:57:25;;;;;;;12.33;8.50;;;4.40;99.90;;;;;;5067518;28;20186;-70
2023/04/20 07:59:50;;;;;;;14.60;9.45;;;4.50;99.90;;;;;;5067397;28;20426;-71
2023/04/20 08:02:16;;;;;;;12.23;9.00;;;4.50;99.90;;;;;;5067100;28;20187;-71
2023/04/20 08:04:43;;;;;;;15.50;8.70;;;4.60;99.90;;;;;;5068281;28;20636;-71
2023/04/20 08:07:09;;;;;;;12.93;9.63;;;4.60;99.90;;;;;;5069166;28;20660;-71
2023/04/20 08:09:35;;;;;;;13.97;9.23;;;4.70;99.90;;;;;;5066894;28;20193;-71
2023/04/20 08:12:01;;;;;;;15.10;10.47;;;4.80;99.90;;;;;;5066968;28;20459;-71
2023/04/20 08:14:26;;;;;;;15.63;9.50;;;4.90;99.90;;;;;;5065169;28;21209;-71
2023/04/20 08:16:52;;;;;;;13.00;9.90;;;5.10;99.90;;;;;;5066922;28;20261;-71
2023/04/20 08:19:18;;;;;;;13.13;10.03;;;5.20;99.90;;;;;;5067136;28;20189;-71
2023/04/20 08:21:43;;;;;;;14.83;10.23;;;5.20;99.90;;;;;;5065786;28;20208;-71
2023/04/20 08:24:09;;;;;;;15.10;9.80;;;5.20;99.90;;;;;;5066918;28;20213;-71
2023/04/20 08:26:35;;;;;;;15.63;9.97;;;5.30;99.90;;;;;;5066868;28;20248;-71
2023/04/20 08:29:02;;;;;;;12.30;9.10;;;5.30;99.90;;;;;;5067536;28;20733;-71
2023/04/20 08:31:28;;;;;;;17.53;9.37;;;5.30;99.90;;;;;;5070544;28;20549;-71
2023/04/20 08:33:54;;;;;;;12.47;9.30;;;5.40;99.90;;;;;;5070378;28;20431;-69
2023/04/20 08:36:19;;;;;;;19.73;11.30;;;5.30;99.90;;;;;;5070548;28;20404;-69
2023/04/20 08:38:45;;;;;;;15.43;10.90;;;5.40;99.90;;;;;;5070502;28;20409;-71
2023/04/20 08:41:14;;;;;;;15.50;10.50;;;5.50;99.90;;;;;;5070371;28;20252;-70
2023/04/20 08:43:40;;;;;;;14.17;10.20;;;5.60;99.90;;;;;;5070404;28;20202;-71
2023/04/20 08:46:06;;;;;;;16.20;10.20;;;5.60;99.90;;;;;;5070535;28;20987;-71
2023/04/20 08:48:35;;;;;;;14.87;9.93;;;5.70;99.90;;;;;;5069173;28;20457;-71
2023/04/20 08:51:02;;;;;;;13.60;10.00;;;5.90;99.90;;;;;;5070419;28;20468;-71
2023/04/20 08:53:28;;;;;;;15.10;10.20;;;6.00;99.90;;;;;;5070342;28;20429;-70
2023/04/20 08:55:56;;;;;;;22.93;10.40;;;6.00;99.90;;;;;;5070530;28;20412;-69
2023/04/20 08:58:24;;;;;;;16.90;10.33;;;6.10;99.90;;;;;;5070343;28;20530;-71
2023/04/20 09:00:50;;;;;;;17.93;9.33;;;6.10;99.90;;;;;;5070254;28;20429;-70
2023/04/20 09:03:15;;;;;;;12.40;9.30;;;6.20;99.90;;;;;;5070266;28;20446;-72
2023/04/20 09:05:43;;;;;;;16.43;11.10;;;6.40;99.90;;;;;;5070299;28;20190;-71
2023/04/20 09:08:09;;;;;;;13.90;10.27;;;6.50;99.90;;;;;;5069773;28;20421;-71
2023/04/20 09:10:42;;;;;;;14.30;10.60;;;6.60;99.90;;;;;;5069759;28;21336;-71
2023/04/20 09:13:21;;;;;;;13.03;10.33;;;6.60;99.90;;;;;;5069744;28;20195;-71
2023/04/20 09:15:47;;;;;;;14.10;10.50;;;6.80;99.90;;;;;;5069650;28;20404;-71
2023/04/20 09:18:14;;;;;;;15.33;10.70;;;6.90;99.90;;;;;;5069673;28;20409;-71
2023/04/20 09:20:40;;;;;;;12.43;9.73;;;7.00;99.90;;;;;;5069781;28;20333;-71
2023/04/20 09:23:16;;;;;;;12.07;10.17;;;7.00;99.90;;;;;;5069652;28;20434;-71
2023/04/20 09:25:45;;;;;;;12.07;9.63;;;7.00;99.90;;;;;;5069641;28;20421;-70
2023/04/20 09:28:12;;;;;;;19.10;11.63;;;7.00;99.90;;;;;;5069553;28;20453;-70
2023/04/20 09:30:41;;;;;;;16.10;11.47;;;7.10;99.90;;;;;;5068001;28;21022;-71
2023/04/20 09:33:09;;;;;;;18.10;11.13;;;7.10;99.90;;;;;;5069306;28;20865;-72
2023/04/20 09:35:35;;;;;;;16.83;10.50;;;7.20;99.90;;;;;;5069699;28;20943;-69
2023/04/20 09:38:01;;;;;;;14.37;10.83;;;7.20;99.90;;;;;;5070001;28;20456;-70
2023/04/20 09:40:27;;;;;;;17.73;11.27;;;7.40;99.90;;;;;;5069787;28;20478;-69
2023/04/20 09:42:53;;;;;;;15.90;12.33;;;7.40;99.90;;;;;;5069449;28;20700;-71
2023/04/20 09:45:20;;;;;;;20.83;12.33;;;7.50;99.90;;;;;;5067972;28;20944;-72
2023/04/20 09:47:48;;;;;;;14.60;10.97;;;7.50;99.90;;;;;;5069611;28;20421;-72
2023/04/20 09:50:14;;;;;;;16.87;11.50;;;7.50;99.90;;;;;;5069667;28;20421;-71
2023/04/20 09:52:42;;;;;;;18.90;11.03;;;7.50;99.90;;;;;;5069619;28;20422;-71
2023/04/20 09:55:09;;;;;;;15.27;10.90;;;7.70;99.90;;;;;;5069485;28;20562;-71
2023/04/20 09:57:37;;;;;;;16.67;11.93;;;7.70;99.90;;;;;;5069528;28;20413;-71
2023/04/20 10:00:05;;;;;;;13.43;10.73;;;7.80;99.90;;;;;;5069399;28;20417;-71
2023/04/20 10:02:31;;;;;;;10.40;8.77;;;7.70;99.90;;;;;;5069483;28;20436;-74
2023/04/20 10:04:58;;;;;;;11.00;8.80;;;7.70;99.90;;;;;;5069232;28;20437;-71
2023/04/20 10:07:32;;;;;;;10.70;9.03;;;7.70;99.90;;;;;;5069566;28;20578;-70
2023/04/20 10:10:14;;;;;;;12.63;8.10;;;7.60;99.90;;;;;;5068102;28;20876;-71
2023/04/20 10:12:54;;;;;;;3.97;3.47;;;7.70;99.90;;;;;;5069698;28;20491;-70
2023/04/20 10:15:21;;;;;;;5.57;4.40;;;7.40;99.90;;;;;;5070196;28;20401;-70
2023/04/20 10:17:47;;;;;;;4.60;3.20;;;7.50;99.90;;;;;;5069034;28;20511;-70
2023/04/20 10:20:23;;;;;;;2.83;2.63;;;7.50;99.90;;;;;;5068864;28;20421;-69
2023/04/20 10:23:05;;;;;;;3.60;3.30;;;7.50;99.90;;;;;;5069083;28;20437;-70
2023/04/20 10:25:30;;;;;;;3.20;3.00;;;7.50;99.90;;;;;;5068712;28;20833;-70
2023/04/20 10:28:03;;;;;;;2.97;2.77;;;7.60;99.90;;;;;;5068945;28;20421;-70
2023/04/20 10:30:30;;;;;;;3.10;2.90;;;7.60;99.90;;;;;;5068864;28;20203;-71
2023/04/20 10:33:02;;;;;;;3.03;2.83;;;7.70;99.90;;;;;;5084231;28;20966;-70
2023/04/20 10:35:28;;;;;;;3.70;3.37;;;7.80;99.90;;;;;;5068874;28;20445;-71
2023/04/20 10:37:54;;;;;;;4.27;3.87;;;7.80;99.90;;;;;;5068783;28;20417;-72
2023/04/20 10:40:26;;;;;;;3.90;3.53;;;7.80;99.90;;;;;;5068551;28;20515;-71
2023/04/20 10:42:52;;;;;;;4.43;4.00;;;7.90;99.90;;;;;;5069000;28;20440;-69
2023/04/20 10:45:19;;;;;;;8.00;5.60;;;8.00;99.90;;;;;;5068893;28;20423;-71
2023/04/20 10:47:45;;;;;;;4.73;4.33;;;8.10;99.90;;;;;;5067315;28;20198;-68
2023/04/20 10:50:15;;;;;;;6.00;5.27;;;8.30;99.90;;;;;;5068534;28;20921;-70
2023/04/20 10:52:42;;;;;;;4.80;3.33;;;8.50;99.90;;;;;;5068089;28;20224;-71
2023/04/20 10:55:22;;;;;;;4.40;4.00;;;8.70;99.90;;;;;;5067057;28;20449;-70
2023/04/20 10:57:49;;;;;;;3.33;3.03;;;8.80;99.90;;;;;;5068625;28;20496;-71
2023/04/20 11:00:19;;;;;;;3.23;2.93;;;9.10;99.90;;;;;;5068901;28;20427;-69
2023/04/20 11:02:56;;;;;;;3.73;3.43;;;9.30;99.90;;;;;;5068410;28;20829;-70
2023/04/20 11:05:24;;;;;;;4.57;4.17;;;9.20;99.90;;;;;;5068535;28;20547;-70
2023/04/20 11:07:52;;;;;;;3.83;3.53;;;9.40;99.90;;;;;;5068262;28;20424;-70
2023/04/20 11:10:19;;;;;;;3.57;3.27;;;9.70;99.90;;;;;;5068213;28;20432;-70
2023/04/20 11:12:45;;;;;;;3.20;2.90;;;10.20;99.90;;;;;;5068024;28;21224;-70
2023/04/20 11:15:11;;;;;;;3.70;3.20;;;10.50;99.90;;;;;;5066537;28;20432;-70
2023/04/20 11:17:38;;;;;;;3.43;2.97;;;10.60;99.90;;;;;;5067866;28;20274;-70
2023/04/20 11:20:15;;;;;;;2.80;2.60;;;10.20;99.90;;;;;;5067878;28;20190;-70
2023/04/20 11:22:42;;;;;;;4.33;3.93;;;9.90;99.90;;;;;;5067885;28;21065;-70
2023/04/20 11:25:10;;;;;;;2.90;2.60;;;9.60;99.90;;;;;;5068499;28;20416;-70
2023/04/20 11:27:37;;;;;;;2.93;2.67;;;9.50;99.90;;;;;;5068083;28;20913;-70
2023/04/20 11:30:04;;;;;;;2.30;2.10;;;9.20;99.90;;;;;;5067679;28;20630;-70
2023/04/20 11:32:31;;;;;;;3.07;2.77;;;9.10;99.90;;;;;;5067896;28;20500;-70
2023/04/20 11:35:04;;;;;;;4.87;3.77;;;8.90;99.90;;;;;;5067668;28;20451;-70
2023/04/20 11:37:30;;;;;;;2.83;2.60;;;8.90;99.90;;;;;;5068278;28;20998;-70
2023/04/20 11:40:06;;;;;;;2.50;2.30;;;8.90;99.90;;;;;;5067557;28;20477;-69
2023/04/20 11:42:31;;;;;;;2.50;2.30;;;8.70;99.90;;;;;;5067583;28;20651;-71
2023/04/20 11:44:58;;;;;;;4.17;2.67;;;8.70;99.90;;;;;;5067293;28;20475;-71
2023/04/20 11:47:24;;;;;;;3.30;3.00;;;8.70;99.90;;;;;;5067279;28;20191;-70
2023/04/20 11:49:50;;;;;;;2.80;2.30;;;8.70;99.90;;;;;;5067562;28;20459;-71
2023/04/20 11:52:15;;;;;;;2.50;2.30;;;8.80;99.90;;;;;;5065774;28;20220;-71
2023/04/20 11:54:41;;;;;;;2.30;2.10;;;8.80;99.90;;;;;;5067340;28;20440;-71
2023/04/20 11:57:07;;;;;;;2.00;1.90;;;8.70;99.90;;;;;;5067411;28;20186;-71
2023/04/20 11:59:33;;;;;;;3.30;2.27;;;8.30;99.90;;;;;;5067140;28;20522;-70
2023/04/20 12:02:02;;;;;;;2.33;2.13;;;8.20;99.90;;;;;;5067193;28;20222;-68
2023/04/20 12:04:31;;;;;;;2.60;2.40;;;8.10;99.90;;;;;;5068607;28;20571;-72
2023/04/20 12:06:58;;;;;;;3.10;2.17;;;8.10;99.90;;;;;;5069720;28;20428;-70
2023/04/20 12:09:25;;;;;;;2.40;2.20;;;8.20;99.90;;;;;;5071110;28;20421;-71
2023/04/20 12:11:51;;;;;;;1.70;1.60;;;8.10;99.90;;;;;;5071210;28;20473;-71
2023/04/20 12:14:16;;;;;;;1.83;1.73;;;8.00;99.90;;;;;;5071077;28;20437;-70
2023/04/20 12:16:42;;;;;;;1.90;1.77;;;8.00;99.90;;;;;;5070007;28;20193;-71
2023/04/20 12:19:08;;;;;;;3.10;2.67;;;7.90;99.90;;;;;;5070872;28;20211;-70
2023/04/20 12:21:34;;;;;;;2.30;2.10;;;7.80;99.90;;;;;;5087244;28;20191;-71
2023/04/20 12:23:59;;;;;;;2.00;1.90;;;7.90;99.90;;;;;;5072793;28;20214;-71
2023/04/20 12:26:25;;;;;;;2.83;2.50;;;7.90;99.90;;;;;;5070856;28;20432;-70
2023/04/20 12:28:51;;;;;;;2.30;2.10;;;7.90;99.90;;;;;;5070761;28;20179;-70
2023/04/20 12:31:17;;;;;;;3.60;3.30;;;7.90;99.90;;;;;;5068798;28;20249;-70
2023/04/20 12:33:43;;;;;;;2.80;2.60;;;7.80;99.90;;;;;;5069195;28;20860;-70
2023/04/20 12:36:09;;;;;;;3.00;2.57;;;7.80;99.90;;;;;;5070669;28;20183;-70
2023/04/20 12:38:35;;;;;;;2.87;2.60;;;7.70;99.90;;;;;;5070383;28;20517;-70
2023/04/20 12:41:03;;;;;;;3.03;2.10;;;7.60;99.90;;;;;;5070217;28;20528;-71
2023/04/20 12:43:29;;;;;;;2.60;2.40;;;7.50;99.90;;;;;;5070238;28;20264;-71